createdAt,value
2019-04-30T00:00:45.297Z,33.30
2019-04-30T00:03:19.556Z,37.60
2019-04-30T00:05:49.434Z,37.03
2019-04-30T00:08:18.177Z,40.07
2019-04-30T00:10:46.565Z,43.63
2019-04-30T00:13:20.626Z,39.93
2019-04-30T00:15:47.747Z,43.20
2019-04-30T00:18:15.589Z,44.07
2019-04-30T00:20:46.982Z,40.53
2019-04-30T00:23:17.740Z,43.20
2019-04-30T00:25:46.020Z,46.90
2019-04-30T00:28:15.547Z,40.80
2019-04-30T00:30:47.601Z,41.20
2019-04-30T00:33:15.242Z,47.43
2019-04-30T00:35:45.401Z,44.00
2019-04-30T00:38:15.159Z,52.47
2019-04-30T00:40:45.021Z,44.20
2019-04-30T00:43:15.458Z,49.53
2019-04-30T00:45:47.098Z,43.97
2019-04-30T00:48:19.395Z,49.43
2019-04-30T00:50:45.735Z,46.83
2019-04-30T00:53:14.858Z,45.70
2019-04-30T00:55:48.262Z,46.10
2019-04-30T00:58:17.746Z,46.10
2019-04-30T01:00:49.350Z,45.60
2019-04-30T01:03:22.562Z,47.90
2019-04-30T01:05:50.966Z,45.00
2019-04-30T01:08:21.220Z,49.40
2019-04-30T01:10:49.491Z,46.97
2019-04-30T01:13:19.174Z,45.33
2019-04-30T01:15:49.076Z,52.40
2019-04-30T01:18:19.301Z,45.10
2019-04-30T01:20:48.725Z,45.97
2019-04-30T01:23:17.304Z,55.50
2019-04-30T01:25:49.947Z,50.07
2019-04-30T01:28:19.995Z,49.80
2019-04-30T01:30:46.437Z,42.77
2019-04-30T01:33:14.831Z,46.67
2019-04-30T01:35:43.250Z,46.90
2019-04-30T01:38:12.839Z,47.73
2019-04-30T01:40:47.396Z,51.13
2019-04-30T01:43:13.236Z,53.90
2019-04-30T01:45:41.663Z,61.37
2019-04-30T01:48:12.819Z,53.63
2019-04-30T01:50:42.020Z,48.90
2019-04-30T01:53:13.071Z,54.10
2019-04-30T01:55:59.183Z,55.97
2019-04-30T01:58:33.448Z,49.30
2019-04-30T02:01:03.752Z,55.50
2019-04-30T02:03:32.156Z,54.97
2019-04-30T02:06:00.654Z,54.27
2019-04-30T02:08:30.068Z,47.97
2019-04-30T02:10:59.389Z,50.20
2019-04-30T02:13:29.518Z,52.13
2019-04-30T02:15:59.283Z,47.57
2019-04-30T02:18:29.553Z,47.93
2019-04-30T02:20:59.556Z,51.70
2019-04-30T02:23:29.694Z,48.57
2019-04-30T02:25:59.249Z,46.37
2019-04-30T02:28:28.980Z,51.27
2019-04-30T02:30:59.901Z,48.33
2019-04-30T02:33:30.601Z,43.60
2019-04-30T02:36:16.117Z,47.20
2019-04-30T02:38:46.141Z,46.50
2019-04-30T02:41:15.313Z,49.90
2019-04-30T02:43:44.961Z,49.60
2019-04-30T02:46:15.521Z,42.33
2019-04-30T02:48:46.070Z,44.03
2019-04-30T02:51:15.335Z,43.57
2019-04-30T02:53:50.508Z,42.43
2019-04-30T02:56:20.638Z,46.93
2019-04-30T02:58:50.452Z,46.20
2019-04-30T03:01:20.525Z,51.40
2019-04-30T03:03:50.114Z,46.37
2019-04-30T03:06:20.491Z,53.63
2019-04-30T03:08:51.260Z,50.97
2019-04-30T03:11:20.646Z,44.50
2019-04-30T03:13:49.608Z,43.30
2019-04-30T03:16:20.847Z,46.27
2019-04-30T03:18:54.330Z,46.63
2019-04-30T03:21:40.690Z,47.77
2019-04-30T03:24:10.697Z,48.43
2019-04-30T03:26:40.025Z,51.33
2019-04-30T03:29:11.329Z,47.80
2019-04-30T03:31:44.604Z,48.60
2019-04-30T03:34:16.777Z,46.10
2019-04-30T03:36:40.411Z,47.60
2019-04-30T03:39:10.989Z,48.47
2019-04-30T03:41:41.300Z,42.13
2019-04-30T03:44:20.364Z,40.50
2019-04-30T03:46:40.248Z,45.33
2019-04-30T03:49:12.497Z,40.47
2019-04-30T03:51:40.251Z,40.87
2019-04-30T03:54:10.195Z,37.27
2019-04-30T03:56:39.611Z,36.50
2019-04-30T03:59:10.520Z,34.00
2019-04-30T04:01:40.236Z,65.77
2019-04-30T04:04:13.237Z,89.20
2019-04-30T04:07:00.035Z,33.20
2019-04-30T04:09:30.115Z,37.70
2019-04-30T04:12:00.353Z,28.80
2019-04-30T04:14:29.646Z,34.43
2019-04-30T04:17:00.102Z,28.37
2019-04-30T04:19:29.217Z,33.40
2019-04-30T04:22:00.041Z,35.40
2019-04-30T04:24:30.093Z,31.13
2019-04-30T04:26:59.678Z,32.60
2019-04-30T04:29:29.872Z,29.70
2019-04-30T04:32:00.874Z,31.70
2019-04-30T04:34:30.314Z,30.83
2019-04-30T04:37:00.056Z,33.97
2019-04-30T04:39:29.728Z,32.70
2019-04-30T04:41:59.996Z,30.53
2019-04-30T04:44:29.476Z,32.93
2019-04-30T04:47:00.181Z,30.77
2019-04-30T04:49:30.577Z,36.10
2019-04-30T04:51:59.176Z,42.20
2019-04-30T04:54:29.815Z,33.07
2019-04-30T04:57:11.155Z,38.53
2019-04-30T04:59:29.683Z,36.67
2019-04-30T05:01:59.928Z,35.90
2019-04-30T05:04:29.840Z,34.63
2019-04-30T05:07:00.109Z,40.93
2019-04-30T05:09:28.637Z,40.17
2019-04-30T05:11:58.578Z,39.93
2019-04-30T05:14:28.828Z,41.77
2019-04-30T05:16:58.659Z,38.33
2019-04-30T05:19:28.611Z,43.90
2019-04-30T05:21:57.137Z,46.43
2019-04-30T05:24:25.554Z,49.57
2019-04-30T05:26:53.945Z,49.60
2019-04-30T05:29:22.354Z,45.70
2019-04-30T05:31:50.760Z,46.20
2019-04-30T05:34:19.316Z,47.80
2019-04-30T05:36:48.983Z,47.47
2019-04-30T05:39:18.881Z,47.87
2019-04-30T05:41:49.160Z,51.87
2019-04-30T05:44:18.540Z,55.13
2019-04-30T05:46:47.027Z,52.53
2019-04-30T05:49:15.435Z,55.13
2019-04-30T05:51:53.572Z,54.20
2019-04-30T05:54:13.971Z,48.67
2019-04-30T05:56:42.792Z,49.20
2019-04-30T05:59:11.270Z,54.10
2019-04-30T06:01:39.674Z,53.03
2019-04-30T06:04:09.517Z,50.70
2019-04-30T06:06:38.855Z,47.90
2019-04-30T06:09:14.875Z,48.17
2019-04-30T06:11:53.479Z,42.77
2019-04-30T06:14:26.183Z,45.57
2019-04-30T06:17:12.448Z,45.73
2019-04-30T06:19:42.893Z,47.40
2019-04-30T06:22:11.300Z,47.93
2019-04-30T06:24:39.952Z,48.07
2019-04-30T06:27:10.864Z,50.33
2019-04-30T06:29:39.831Z,46.90
2019-04-30T06:32:08.691Z,44.13
2019-04-30T06:34:41.618Z,45.90
2019-04-30T06:37:09.640Z,42.00
2019-04-30T06:39:38.641Z,55.33
2019-04-30T06:42:10.756Z,47.70
2019-04-30T06:44:41.639Z,47.07
2019-04-30T06:47:09.174Z,48.17
2019-04-30T06:49:39.244Z,46.43
2019-04-30T06:52:18.225Z,42.40
2019-04-30T06:54:39.300Z,45.17
2019-04-30T06:57:11.777Z,49.23
2019-04-30T06:59:39.556Z,48.07
2019-04-30T07:02:09.074Z,44.73
2019-04-30T07:04:40.023Z,48.83
2019-04-30T07:07:09.145Z,50.40
2019-04-30T07:09:53.106Z,47.30
2019-04-30T07:12:27.247Z,45.30
2019-04-30T07:14:50.211Z,44.87
2019-04-30T07:17:19.557Z,45.40
2019-04-30T07:22:20.663Z,39.83
2019-04-30T07:24:49.681Z,43.80
2019-04-30T07:27:23.737Z,44.13
2019-04-30T07:29:49.503Z,43.30
2019-04-30T07:32:19.716Z,41.03
2019-04-30T07:34:49.532Z,41.60
2019-04-30T07:39:49.346Z,39.20
2019-04-30T07:42:19.229Z,53.03
2019-04-30T07:44:50.018Z,40.67
2019-04-30T07:47:19.506Z,43.37
2019-04-30T07:49:52.908Z,41.47
2019-04-30T07:52:21.080Z,41.90
2019-04-30T07:54:51.520Z,44.00
2019-04-30T07:57:19.230Z,39.30
2019-04-30T07:59:49.959Z,41.80
2019-04-30T08:02:20.578Z,38.93
2019-04-30T08:04:51.208Z,44.90
2019-04-30T08:07:20.431Z,41.50
2019-04-30T08:09:35.680Z,47.90
2019-04-30T08:09:36.945Z,42.80
2019-04-30T08:09:49.417Z,40.37
2019-04-30T08:12:25.808Z,43.93
2019-04-30T08:14:49.577Z,46.87
2019-04-30T08:17:18.880Z,46.53
2019-04-30T08:19:49.010Z,49.83
2019-04-30T08:22:19.427Z,46.73
2019-04-30T08:24:49.226Z,44.73
2019-04-30T08:27:19.689Z,40.33
2019-04-30T08:29:49.933Z,44.97
2019-04-30T08:32:19.084Z,46.33
2019-04-30T08:34:49.964Z,42.63
2019-04-30T08:37:20.127Z,48.07
2019-04-30T08:39:49.728Z,54.30
2019-04-30T08:42:29.010Z,42.83
2019-04-30T08:44:48.599Z,41.47
2019-04-30T08:47:20.972Z,41.30
2019-04-30T08:49:49.528Z,43.97
2019-04-30T08:52:19.496Z,40.77
2019-04-30T08:54:49.601Z,42.27
2019-04-30T08:57:19.048Z,47.63
2019-04-30T08:59:49.428Z,50.37
2019-04-30T09:02:19.754Z,42.50
2019-04-30T09:04:49.932Z,47.60
2019-04-30T09:07:19.679Z,46.77
2019-04-30T09:09:48.855Z,46.23
2019-04-30T09:12:19.419Z,43.90
2019-04-30T09:14:49.113Z,45.07
2019-04-30T09:17:19.709Z,46.87
2019-04-30T09:19:49.015Z,47.00
2019-04-30T09:22:19.285Z,48.57
2019-04-30T09:24:49.548Z,46.53
2019-04-30T09:27:19.549Z,43.43
2019-04-30T09:29:49.230Z,43.13
2019-04-30T09:32:19.297Z,44.37
2019-04-30T09:34:48.793Z,46.63
2019-04-30T09:37:18.674Z,47.80
2019-04-30T09:39:49.428Z,47.90
2019-04-30T09:42:19.565Z,44.00
2019-04-30T09:44:49.258Z,49.30
2019-04-30T09:47:20.077Z,43.73
2019-04-30T09:50:09.120Z,46.57
2019-04-30T09:52:39.640Z,40.53
2019-04-30T09:55:09.625Z,47.83
2019-04-30T09:57:39.014Z,47.00
2019-04-30T10:00:09.949Z,40.57
2019-04-30T10:02:38.910Z,45.50
2019-04-30T10:05:08.732Z,38.83
2019-04-30T10:07:39.275Z,41.50
2019-04-30T10:10:09.522Z,39.10
2019-04-30T10:12:39.244Z,41.47
2019-04-30T10:15:10.370Z,36.23
2019-04-30T10:17:40.429Z,42.70
2019-04-30T10:20:11.657Z,37.33
2019-04-30T10:22:40.175Z,44.00
2019-04-30T10:25:10.581Z,42.90
2019-04-30T10:27:39.027Z,42.50
2019-04-30T10:30:10.199Z,43.90
2019-04-30T10:32:38.779Z,42.73
2019-04-30T10:35:07.734Z,42.77
2019-04-30T10:37:36.158Z,44.40
2019-04-30T10:40:07.225Z,39.03
2019-04-30T10:42:35.628Z,40.57
2019-04-30T10:45:09.793Z,42.20
2019-04-30T10:47:39.336Z,37.40
2019-04-30T10:50:09.875Z,39.07
2019-04-30T10:52:39.345Z,37.07
2019-04-30T10:55:09.356Z,37.70
2019-04-30T10:57:39.615Z,38.17
2019-04-30T11:00:11.666Z,38.10
2019-04-30T11:02:40.093Z,41.50
2019-04-30T11:05:08.619Z,38.40
2019-04-30T11:07:38.443Z,41.60
2019-04-30T11:10:08.810Z,41.33
2019-04-30T11:12:39.104Z,37.20
2019-04-30T11:15:08.421Z,37.87
2019-04-30T11:17:36.988Z,36.87
2019-04-30T11:20:10.308Z,41.83
2019-04-30T11:22:39.858Z,43.53
2019-04-30T11:25:10.085Z,38.57
2019-04-30T11:27:40.809Z,38.70
2019-04-30T11:30:20.730Z,43.20
2019-04-30T11:32:40.145Z,37.10
2019-04-30T11:35:09.304Z,37.73
2019-04-30T11:37:37.778Z,40.20
2019-04-30T11:40:11.695Z,36.23
2019-04-30T11:42:40.098Z,38.70
2019-04-30T11:45:10.021Z,35.77
2019-04-30T11:47:39.511Z,36.73
2019-04-30T11:50:10.719Z,37.20
2019-04-30T11:52:39.126Z,34.27
2019-04-30T11:55:09.703Z,34.40
2019-04-30T11:57:39.714Z,34.83
2019-04-30T12:00:13.016Z,36.97
2019-04-30T12:02:41.500Z,35.77
2019-04-30T12:05:10.839Z,35.07
2019-04-30T12:07:43.378Z,35.03
2019-04-30T12:10:16.795Z,28.13
2019-04-30T12:12:45.204Z,33.60
2019-04-30T12:15:13.738Z,35.90
2019-04-30T12:17:42.167Z,31.40
2019-04-30T12:20:11.020Z,33.07
2019-04-30T12:22:39.757Z,30.40
2019-04-30T12:25:10.005Z,32.33
2019-04-30T12:27:38.719Z,30.60
2019-04-30T12:30:08.267Z,28.90
2019-04-30T12:32:36.662Z,28.70
2019-04-30T12:35:08.581Z,30.60
2019-04-30T12:37:38.938Z,31.43
2019-04-30T12:40:09.519Z,27.33
2019-04-30T12:42:38.462Z,29.30
2019-04-30T12:45:09.483Z,27.00
2019-04-30T12:47:39.697Z,30.43
2019-04-30T12:50:10.291Z,30.10
2019-04-30T12:52:40.343Z,30.50
2019-04-30T12:55:15.498Z,25.27
2019-04-30T12:57:56.134Z,27.20
2019-04-30T13:00:16.760Z,32.87
2019-04-30T13:02:45.207Z,24.37
2019-04-30T13:05:13.954Z,25.43
2019-04-30T13:07:42.839Z,22.50
2019-04-30T13:10:12.514Z,25.77
2019-04-30T13:12:42.010Z,28.67
2019-04-30T13:15:11.238Z,23.67
2019-04-30T13:17:39.675Z,23.70
2019-04-30T13:20:18.107Z,24.73
2019-04-30T13:22:38.915Z,26.27
2019-04-30T13:25:09.203Z,27.43
2019-04-30T13:27:39.464Z,20.90
2019-04-30T13:30:10.347Z,23.97
2019-04-30T13:32:40.382Z,24.13
2019-04-30T13:35:09.393Z,24.57
2019-04-30T13:37:42.274Z,19.33
2019-04-30T13:40:12.554Z,22.60
2019-04-30T13:42:42.594Z,20.20
2019-04-30T13:45:11.329Z,16.83
2019-04-30T13:47:39.737Z,33.50
2019-04-30T13:50:09.286Z,17.83
2019-04-30T13:52:38.945Z,16.10
2019-04-30T13:55:10.767Z,21.83
2019-04-30T13:57:38.334Z,15.60
2019-04-30T14:00:11.451Z,18.00
2019-04-30T14:02:41.581Z,15.57
2019-04-30T14:05:14.467Z,17.60
2019-04-30T14:07:50.298Z,19.17
2019-04-30T14:10:19.605Z,25.50
2019-04-30T14:12:55.928Z,17.00
2019-04-30T14:15:24.334Z,16.17
2019-04-30T14:17:52.796Z,18.07
2019-04-30T14:20:21.287Z,19.40
2019-04-30T14:22:49.688Z,19.20
2019-04-30T14:25:18.260Z,16.90
2019-04-30T14:27:52.352Z,17.20
2019-04-30T14:30:19.150Z,15.57
2019-04-30T14:32:50.600Z,14.50
2019-04-30T14:35:18.690Z,17.50
2019-04-30T14:37:49.455Z,14.47
2019-04-30T14:40:19.870Z,16.30
2019-04-30T14:42:49.668Z,16.37
2019-04-30T14:45:23.199Z,19.57
2019-04-30T14:47:54.561Z,21.10
2019-04-30T14:50:25.411Z,18.10
2019-04-30T14:52:58.143Z,14.47
2019-04-30T14:55:46.397Z,16.50
2019-04-30T14:58:25.277Z,14.53
2019-04-30T15:00:55.313Z,21.07
2019-04-30T15:03:25.372Z,17.10
2019-04-30T15:05:53.877Z,15.70
2019-04-30T15:08:22.322Z,15.17
2019-04-30T15:10:50.777Z,14.57
2019-04-30T15:13:19.586Z,14.03
2019-04-30T15:15:49.106Z,14.00
2019-04-30T15:18:19.165Z,14.03
2019-04-30T15:20:49.824Z,20.80
2019-04-30T15:23:23.039Z,16.03
2019-04-30T15:25:51.462Z,15.00
2019-04-30T15:28:19.865Z,15.23
2019-04-30T15:30:48.865Z,16.33
2019-04-30T15:33:28.151Z,17.00
2019-04-30T15:35:56.575Z,16.33
2019-04-30T15:38:26.605Z,13.40
2019-04-30T15:40:55.043Z,20.23
2019-04-30T15:43:23.434Z,12.57
2019-04-30T15:45:51.846Z,16.60
2019-04-30T15:48:20.250Z,16.07
2019-04-30T15:50:49.264Z,14.67
2019-04-30T15:53:19.375Z,13.23
2019-04-30T15:55:47.936Z,17.73
2019-04-30T15:58:18.062Z,12.20
2019-04-30T16:00:46.457Z,14.23
2019-04-30T16:03:16.506Z,12.13
2019-04-30T16:05:46.602Z,13.80
2019-04-30T16:08:19.402Z,10.77
2019-04-30T16:10:49.446Z,13.53
2019-04-30T16:13:19.606Z,12.47
2019-04-30T16:15:49.195Z,11.60
2019-04-30T16:18:19.465Z,10.47
2019-04-30T16:20:49.746Z,11.83
2019-04-30T16:23:19.140Z,12.67
2019-04-30T16:25:47.723Z,12.33
2019-04-30T16:28:16.125Z,11.30
2019-04-30T16:30:44.611Z,13.53
2019-04-30T16:33:13.013Z,13.20
2019-04-30T16:36:00.776Z,14.63
2019-04-30T16:38:29.178Z,10.07
2019-04-30T16:40:58.480Z,13.27
2019-04-30T16:43:29.275Z,12.43
2019-04-30T16:45:58.875Z,9.60
2019-04-30T16:48:28.987Z,13.00
2019-04-30T16:50:58.686Z,12.40
2019-04-30T16:53:27.171Z,9.97
2019-04-30T16:55:55.562Z,13.67
2019-04-30T16:58:23.980Z,12.40
2019-04-30T17:00:52.519Z,11.10
2019-04-30T17:03:23.403Z,12.83
2019-04-30T17:05:53.449Z,13.17
2019-04-30T17:08:39.083Z,11.40
2019-04-30T17:11:09.216Z,10.10
2019-04-30T17:13:39.266Z,10.20
2019-04-30T17:16:12.279Z,12.60
2019-04-30T17:18:41.767Z,12.00
2019-04-30T17:21:10.371Z,12.77
2019-04-30T17:23:38.773Z,12.00
2019-04-30T17:26:07.191Z,13.50
2019-04-30T17:28:35.759Z,13.50
2019-04-30T17:31:04.520Z,12.57
2019-04-30T17:33:32.910Z,12.47
2019-04-30T17:36:01.339Z,13.00
2019-04-30T17:38:29.731Z,11.90
2019-04-30T17:40:58.152Z,12.07
2019-04-30T17:43:26.552Z,11.17
2019-04-30T17:45:54.958Z,11.43
2019-04-30T17:48:23.347Z,9.77
2019-04-30T17:50:51.749Z,7.90
2019-04-30T17:53:20.150Z,13.60
2019-04-30T17:55:49.081Z,12.00
2019-04-30T17:58:20.463Z,10.20
2019-04-30T18:00:49.565Z,9.13
2019-04-30T18:03:18.988Z,15.47
2019-04-30T18:05:49.207Z,9.80
2019-04-30T18:08:17.792Z,13.80
2019-04-30T18:10:46.258Z,14.40
2019-04-30T18:13:14.668Z,13.67
2019-04-30T18:15:43.067Z,13.73
2019-04-30T18:18:13.109Z,10.60
2019-04-30T18:20:52.335Z,14.17
2019-04-30T18:23:22.396Z,17.30
2019-04-30T18:25:52.487Z,12.03
2019-04-30T18:28:20.877Z,14.03
2019-04-30T18:30:49.356Z,13.80
2019-04-30T18:33:17.790Z,12.07
2019-04-30T18:35:46.188Z,17.23
2019-04-30T18:38:17.429Z,14.17
2019-04-30T18:40:44.733Z,16.60
2019-04-30T18:43:13.430Z,15.10
2019-04-30T18:45:41.832Z,16.17
2019-04-30T18:48:10.245Z,12.40
2019-04-30T18:50:38.651Z,13.97
2019-04-30T18:53:08.782Z,18.03
2019-04-30T18:55:37.172Z,14.43
2019-04-30T18:58:05.658Z,16.40
2019-04-30T19:00:39.574Z,19.07
2019-04-30T19:03:08.670Z,26.10
2019-04-30T19:05:39.336Z,26.43
2019-04-30T19:08:09.869Z,15.23
2019-04-30T19:10:42.771Z,16.57
2019-04-30T19:13:12.938Z,21.00
2019-04-30T19:16:12.735Z,21.27
2019-04-30T19:18:30.014Z,21.20
2019-04-30T19:21:00.133Z,25.60
2019-04-30T19:23:29.155Z,27.10
2019-04-30T19:25:59.570Z,22.27
2019-04-30T19:28:28.716Z,24.10
2019-04-30T19:30:58.861Z,17.50
2019-04-30T19:33:30.746Z,21.70
2019-04-30T19:35:58.593Z,25.77
2019-04-30T19:38:27.127Z,24.50
2019-04-30T19:40:55.544Z,23.70
2019-04-30T19:43:23.943Z,24.53
2019-04-30T19:45:52.496Z,23.23
2019-04-30T19:48:20.900Z,23.07
2019-04-30T19:50:49.293Z,21.63
2019-04-30T19:53:21.830Z,23.57
2019-04-30T19:55:49.259Z,27.80
2019-04-30T19:58:26.221Z,27.60
2019-04-30T20:00:49.741Z,27.47
2019-04-30T20:03:37.391Z,26.57
2019-04-30T20:06:05.941Z,24.70
2019-04-30T20:08:34.339Z,26.63
2019-04-30T20:11:02.755Z,26.83
2019-04-30T20:13:36.839Z,29.47
2019-04-30T20:16:01.358Z,30.73
2019-04-30T20:18:29.757Z,28.80
2019-04-30T20:21:01.200Z,35.37
2019-04-30T20:23:29.956Z,29.27
2019-04-30T20:25:58.363Z,39.50
2019-04-30T20:28:38.607Z,39.40
2019-04-30T20:30:56.897Z,32.90
2019-04-30T20:33:25.371Z,31.07
2019-04-30T20:35:53.773Z,31.13
2019-04-30T20:38:23.803Z,31.33
2019-04-30T20:41:00.339Z,33.60
2019-04-30T20:43:22.487Z,32.93
2019-04-30T20:45:50.895Z,38.33
2019-04-30T20:48:19.299Z,28.30
2019-04-30T20:50:47.708Z,30.40
2019-04-30T20:53:16.107Z,35.60
2019-04-30T20:55:44.510Z,34.63
2019-04-30T20:58:12.911Z,38.13
2019-04-30T21:00:41.314Z,60.20
2019-04-30T21:03:09.847Z,47.10
2019-04-30T21:05:38.499Z,38.27
2019-04-30T21:08:07.015Z,39.13
2019-04-30T21:10:35.412Z,35.90
2019-04-30T21:13:03.978Z,38.00
2019-04-30T21:15:32.385Z,36.03
2019-04-30T21:18:00.794Z,35.50
2019-04-30T21:20:29.187Z,44.30
2019-04-30T21:22:59.507Z,38.93
2019-04-30T21:25:29.171Z,40.30
2019-04-30T21:27:59.756Z,37.10
2019-04-30T21:30:28.008Z,40.33
2019-04-30T21:33:10.130Z,42.43
2019-04-30T21:35:40.171Z,47.27
2019-04-30T21:38:09.458Z,41.00
2019-04-30T21:40:39.432Z,42.70
2019-04-30T21:43:08.144Z,43.40
2019-04-30T21:45:36.593Z,41.53
2019-04-30T21:48:04.999Z,43.03
2019-04-30T21:50:33.392Z,39.77
2019-04-30T21:53:01.792Z,44.23
2019-04-30T21:55:30.177Z,43.63
2019-04-30T21:57:59.461Z,49.20
2019-04-30T22:00:29.930Z,50.30
2019-04-30T22:02:59.786Z,44.00
2019-04-30T22:05:28.245Z,46.93
2019-04-30T22:07:59.043Z,46.30
2019-04-30T22:10:26.799Z,50.10
2019-04-30T22:12:55.201Z,51.03
2019-04-30T22:15:23.614Z,50.60
2019-04-30T22:17:52.018Z,47.43
2019-04-30T22:20:20.403Z,52.70
2019-04-30T22:22:49.043Z,52.80
2019-04-30T22:25:19.287Z,51.40
2019-04-30T22:27:47.625Z,47.93
2019-04-30T22:30:16.161Z,52.60
2019-04-30T22:32:44.574Z,49.97
2019-04-30T22:35:26.781Z,53.90
2019-04-30T22:37:59.606Z,55.00
2019-04-30T22:40:29.046Z,48.47
2019-04-30T22:42:59.385Z,52.33
2019-04-30T22:45:29.478Z,51.57
2019-04-30T22:47:58.891Z,50.93
2019-04-30T22:50:27.532Z,52.67
2019-04-30T22:52:56.024Z,48.27
2019-04-30T22:55:24.418Z,51.70
2019-04-30T22:57:52.887Z,46.97
2019-04-30T23:00:23.067Z,51.10
2019-04-30T23:02:55.531Z,55.17
2019-04-30T23:05:23.942Z,53.33
2019-04-30T23:07:52.524Z,49.60
2019-04-30T23:10:20.949Z,50.50
2019-04-30T23:12:49.447Z,54.73
2019-04-30T23:15:19.411Z,55.13
2019-04-30T23:17:47.869Z,56.27
2019-04-30T23:20:16.347Z,49.03
2019-04-30T23:22:44.737Z,50.57
2019-04-30T23:25:13.309Z,54.17
2019-04-30T23:27:41.743Z,54.93
2019-04-30T23:30:10.814Z,57.73
2019-04-30T23:32:39.215Z,59.90
2019-04-30T23:35:07.687Z,52.93
2019-04-30T23:37:36.158Z,54.83
2019-04-30T23:40:29.771Z,59.67
2019-04-30T23:42:58.338Z,49.60
2019-04-30T23:45:26.916Z,61.30
2019-04-30T23:47:55.366Z,56.80
2019-04-30T23:50:23.782Z,50.63
2019-04-30T23:52:52.177Z,51.17
2019-04-30T23:55:20.586Z,50.67
2019-04-30T23:57:48.987Z,50.70
